This is the latest recevied weather packets stored in our database for station/object SALIDA. If no packets are shown the sender has not sent any weather packets the latest 10 day(s).
| Time | Temp. | Humidity | Pressure | Rain* | Wind** | Luminosity | Snow |
|---|---|---|---|---|---|---|---|
| 1777730492 | 2.22° C | 75% | 1020.8 hPa | 0 mm | - | - | - |
| 1777729592 | 1.11° C | 79% | 1020.9 hPa | 0 mm | - | - | - |
| 1777728692 | 0° C | 83% | 1020.9 hPa | 0 mm | - | - | - |
| 1777727792 | -1.67° C | 86% | 1020.9 hPa | 0 mm | - | - | - |
| 1777726892 | -2.22° C | 85% | 1020.9 hPa | 0 mm | - | - | - |
| 1777725992 | -2.78° C | 86% | 1020.5 hPa | 0 mm | - | - | - |
| 1777725092 | -2.78° C | 85% | 1020.3 hPa | 0 mm | - | - | - |
| 1777724192 | -2.78° C | 84% | 1020.3 hPa | 0 mm | - | - | - |
| 1777723292 | -2.78° C | 83% | 1020.1 hPa | 0 mm | - | - | - |
| 1777722392 | -2.78° C | 83% | 1020.1 hPa | 0 mm | - | - | - |
| 1777721492 | -2.22° C | 82% | 1019.9 hPa | 0 mm | - | - | - |
| 1777720592 | -2.22° C | 82% | 1019.9 hPa | 0 mm | - | - | - |
| 1777719692 | -1.67° C | 81% | 1019.9 hPa | 0 mm | - | - | - |
| 1777718793 | -1.67° C | 81% | 1019.7 hPa | 0 mm | - | - | - |
| 1777717893 | -1.67° C | 82% | 1019.6 hPa | 0 mm | - | - | - |
| 1777716993 | -1.67° C | 82% | 1019.2 hPa | 0 mm | - | - | - |
| 1777716093 | -1.67° C | 82% | 1019.1 hPa | 0 mm | - | - | - |
| 1777715193 | -1.67° C | 82% | 1019.1 hPa | 0 mm | - | - | - |
| 1777714293 | -1.11° C | 81% | 1019.1 hPa | 0 mm | - | - | - |
| 1777713393 | -1.11° C | 80% | 1019 hPa | 0 mm | - | - | - |
| 1777712493 | -0.56° C | 80% | 1018.8 hPa | 0 mm | - | - | - |
| 1777711593 | -0.56° C | 80% | 1018.7 hPa | 0 mm | - | - | - |
| 1777710693 | 0° C | 79% | 1018.4 hPa | 0 mm | - | - | - |
| 1777709793 | 0° C | 79% | 1018.4 hPa | 0 mm | - | - | - |
| 1777708893 | 0.56° C | 77% | 1018.5 hPa | 0 mm | - | - | - |
* Rain latest hour (hover to see other rain measurements)
** Current wind speed in m/s (hover to see current wind gust speed)